Time;durP1;ratioP1;P1;durP2;ratioP2;P2;SDS_P1;SDS_P2;PMS_P1;PMS_P2;Temp;Humidity;BMP_temperature;BMP_pressure;BME280_temperature;BME280_humidity;BME280_pressure;Samples;Min_cycle;Max_cycle;Signal;HPM_P1;HPM_P2
2021/09/25 00:00:56;;;;;;;3.90;2.30;;;12.30;1.00;;;;;;5028672;28;20499;-77
2021/09/25 00:03:58;;;;;;;2.47;2.27;;;12.30;1.00;;;;;;5013935;28;20879;-77
2021/09/25 00:06:26;;;;;;;4.27;2.60;;;12.30;1.00;;;;;;5016357;28;20529;-77
2021/09/25 00:08:57;;;;;;;3.40;2.77;;;12.30;1.00;;;;;;5034565;28;20388;-77
2021/09/25 00:11:38;;;;;;;4.73;2.50;;;12.20;1.00;;;;;;5034151;28;20398;-77
2021/09/25 00:14:14;;;;;;;3.07;2.60;;;12.20;1.00;;;;;;5033966;28;20389;-77
2021/09/25 00:23:26;;;;;;;4.07;2.20;;;12.10;1.00;;;;;;5013883;28;20478;-78
2021/09/25 00:25:53;;;;;;;5.33;2.77;;;12.10;1.00;;;;;;5014471;28;20446;-77
2021/09/25 00:31:50;;;;;;;2.50;2.20;;;12.00;1.00;;;;;;5033795;28;20470;-77
2021/09/25 00:34:26;;;;;;;6.30;2.63;;;12.00;1.00;;;;;;5033389;28;20419;-77
2021/09/25 00:37:02;;;;;;;5.10;2.43;;;12.00;1.00;;;;;;5033006;28;20415;-78
2021/09/25 00:40:14;;;;;;;3.63;2.40;;;12.00;1.00;;;;;;5024739;28;20458;-77
2021/09/25 00:42:40;;;;;;;8.23;3.10;;;11.90;1.00;;;;;;5019329;28;20516;-77
2021/09/25 00:45:07;;;;;;;3.50;2.70;;;11.90;1.00;;;;;;5033560;28;20405;-77
2021/09/25 00:48:08;;;;;;;5.30;2.80;;;11.90;1.00;;;;;;5023687;28;20570;-77
2021/09/25 00:50:38;;;;;;;3.10;2.47;;;11.90;1.00;;;;;;5013823;28;20388;-77
2021/09/25 00:53:38;;;;;;;5.87;3.37;;;11.90;1.00;;;;;;5019843;28;20416;-77
2021/09/25 00:56:14;;;;;;;2.63;2.43;;;11.90;1.00;;;;;;5033814;28;20396;-77
2021/09/25 00:58:45;;;;;;;3.53;2.57;;;11.80;1.00;;;;;;5017746;28;20435;-77
2021/09/25 01:01:14;;;;;;;2.97;2.40;;;11.80;1.00;;;;;;5023347;28;20430;-77
2021/09/25 01:03:56;;;;;;;4.53;3.13;;;11.80;1.00;;;;;;5032875;28;20415;-77
2021/09/25 01:06:22;;;;;;;2.77;2.50;;;11.80;1.00;;;;;;5033790;28;20402;-77
2021/09/25 01:09:26;;;;;;;2.60;2.37;;;11.80;1.00;;;;;;5033186;28;20411;-77
2021/09/25 01:11:56;;;;;;;2.90;2.40;;;11.70;1.00;;;;;;5033898;28;20207;-77
2021/09/25 01:14:38;;;;;;;5.03;2.30;;;11.70;1.00;;;;;;5035777;28;20419;-77
2021/09/25 01:17:14;;;;;;;3.90;2.83;;;11.70;1.00;;;;;;5036900;28;20406;-77
2021/09/25 01:20:02;;;;;;;3.60;2.40;;;11.70;1.00;;;;;;5027828;28;20412;-77
2021/09/25 01:22:28;;;;;;;3.33;2.50;;;11.60;1.00;;;;;;5037494;28;20493;-77
2021/09/25 01:25:32;;;;;;;2.03;1.87;;;11.70;1.00;;;;;;5018689;28;20875;-77
2021/09/25 01:27:58;;;;;;;2.70;2.10;;;11.60;1.00;;;;;;5017253;28;20455;-77
2021/09/25 01:30:32;;;;;;;2.60;2.00;;;11.60;1.00;;;;;;5029540;28;20400;-77
2021/09/25 01:33:24;;;;;;;3.77;2.53;;;11.60;1.00;;;;;;5035605;28;21042;-77
2021/09/25 01:36:02;;;;;;;3.37;2.83;;;11.60;1.00;;;;;;5036428;28;20926;-77
2021/09/25 01:38:28;;;;;;;2.93;2.63;;;11.50;1.00;;;;;;5025443;28;20419;-77
2021/09/25 01:41:20;;;;;;;2.37;2.17;;;11.50;1.00;;;;;;5016520;28;20475;-75
2021/09/25 01:43:56;;;;;;;3.40;2.67;;;11.50;1.00;;;;;;5018288;28;20193;-74
2021/09/25 01:46:39;;;;;;;5.13;2.83;;;11.40;1.00;;;;;;5016516;28;20404;-74
2021/09/25 01:49:08;;;;;;;3.03;2.30;;;11.40;1.00;;;;;;5016726;28;20514;-74
2021/09/25 01:51:34;;;;;;;6.13;2.60;;;11.40;1.00;;;;;;5035358;28;20411;-74
2021/09/25 01:54:08;;;;;;;3.07;2.20;;;11.40;1.00;;;;;;5035876;28;20419;-75
2021/09/25 01:56:34;;;;;;;3.87;2.63;;;11.40;1.00;;;;;;5017519;28;20175;-74
2021/09/25 01:59:00;;;;;;;9.00;2.60;;;11.40;1.00;;;;;;5024010;28;20412;-74
2021/09/25 02:01:26;;;;;;;2.23;2.00;;;11.30;1.00;;;;;;5036255;28;20265;-74
2021/09/25 02:03:52;;;;;;;3.13;2.40;;;11.30;1.00;;;;;;5035761;28;20418;-74
2021/09/25 02:06:26;;;;;;;6.50;2.10;;;11.30;1.00;;;;;;5036242;28;20862;-74
2021/09/25 02:09:14;;;;;;;3.90;2.27;;;11.40;1.00;;;;;;5035891;28;20647;-74
2021/09/25 02:15:14;;;;;;;10.70;3.00;;;11.30;1.00;;;;;;5035437;28;20446;-78
2021/09/25 02:21:03;;;;;;;6.00;2.67;;;11.30;1.00;;;;;;5016255;28;20431;-78
2021/09/25 02:23:38;;;;;;;5.50;2.33;;;11.30;1.00;;;;;;5016114;28;20764;-77
2021/09/25 02:26:04;;;;;;;2.60;2.40;;;11.40;1.00;;;;;;5034894;28;20438;-77
2021/09/25 02:28:56;;;;;;;4.47;2.63;;;11.40;1.00;;;;;;5035355;28;20411;-77
2021/09/25 02:34:44;;;;;;;4.50;2.33;;;11.30;1.00;;;;;;5034722;28;20764;-78
2021/09/25 02:37:14;;;;;;;10.53;2.80;;;11.30;1.00;;;;;;5035556;28;20395;-77
2021/09/25 02:39:44;;;;;;;3.90;2.80;;;11.30;1.00;;;;;;5035519;28;20458;-77
2021/09/25 02:42:14;;;;;;;3.37;2.23;;;11.30;1.00;;;;;;5035536;28;20471;-74
2021/09/25 02:44:44;;;;;;;3.17;2.50;;;11.30;1.00;;;;;;5031358;28;20793;-74
2021/09/25 02:47:14;;;;;;;2.97;2.60;;;11.30;1.00;;;;;;5024147;28;20899;-74
2021/09/25 02:49:40;;;;;;;4.07;2.47;;;11.30;1.00;;;;;;5015577;28;20875;-74
2021/09/25 02:52:06;;;;;;;2.90;2.60;;;11.30;1.00;;;;;;5015513;28;20431;-74
2021/09/25 02:54:31;;;;;;;4.73;2.80;;;11.30;1.00;;;;;;5020232;28;20500;-74
2021/09/25 02:56:57;;;;;;;4.63;2.73;;;11.20;1.00;;;;;;5035652;28;20165;-77
2021/09/25 02:59:23;;;;;;;5.20;2.93;;;;;;;;;;5031606;28;20173;-77
2021/09/25 03:01:50;;;;;;;2.73;2.37;;;11.30;1.00;;;;;;5015367;28;20549;-77
2021/09/25 03:04:20;;;;;;;3.20;2.53;;;11.20;1.00;;;;;;5015318;28;20401;-78
2021/09/25 03:06:48;;;;;;;4.67;3.07;;;11.20;1.00;;;;;;5034473;28;20404;-77
2021/09/25 03:09:14;;;;;;;2.60;2.40;;;11.20;1.00;;;;;;5032566;28;20437;-77
2021/09/25 03:12:26;;;;;;;3.23;2.40;;;11.20;1.00;;;;;;5034946;28;20403;-77
2021/09/25 03:15:05;;;;;;;4.90;2.50;;;11.20;1.00;;;;;;5034419;28;20434;-77
2021/09/25 03:17:38;;;;;;;6.00;2.70;;;11.20;1.00;;;;;;5034395;28;20423;-77
2021/09/25 03:20:09;;;;;;;4.13;2.50;;;11.20;1.00;;;;;;5015044;28;20408;-77
2021/09/25 03:23:08;;;;;;;4.53;2.80;;;11.10;1.00;;;;;;5020433;28;20454;-77
2021/09/25 03:25:33;;;;;;;2.60;2.40;;;11.10;1.00;;;;;;5025698;28;20470;-77
2021/09/25 03:27:59;;;;;;;3.10;2.80;;;11.10;1.00;;;;;;5015163;28;20405;-74
2021/09/25 03:30:25;;;;;;;6.10;2.90;;;11.10;1.00;;;;;;5030115;28;20203;-75
2021/09/25 03:33:03;;;;;;;4.03;2.50;;;11.10;1.00;;;;;;5034446;28;20160;-74
2021/09/25 03:35:32;;;;;;;2.77;2.57;;;11.10;1.00;;;;;;5031696;28;20176;-74
2021/09/25 03:38:08;;;;;;;3.83;2.40;;;11.10;1.00;;;;;;5032608;28;20772;-74
2021/09/25 03:40:34;;;;;;;9.60;3.73;;;11.10;1.00;;;;;;5034469;28;20965;-75
2021/09/25 03:43:00;;;;;;;3.07;2.40;;;11.10;1.00;;;;;;5034718;28;20549;-77
2021/09/25 03:45:38;;;;;;;9.93;2.80;;;11.10;1.00;;;;;;5025670;28;20252;-77
2021/09/25 03:48:26;;;;;;;3.00;2.70;;;11.00;1.00;;;;;;5032726;28;20192;-77
2021/09/25 03:51:26;;;;;;;4.50;2.83;;;11.00;1.00;;;;;;5033678;28;20419;-77
2021/09/25 03:54:08;;;;;;;4.13;2.87;;;11.00;1.00;;;;;;5031862;28;20434;-77
2021/09/25 03:57:08;;;;;;;3.00;2.40;;;11.00;1.00;;;;;;5031262;28;20419;-77
2021/09/25 03:59:38;;;;;;;4.80;2.53;;;10.90;1.00;;;;;;5034175;28;20398;-77
2021/09/25 04:02:26;;;;;;;2.40;2.20;;;10.90;1.00;;;;;;5033939;28;20545;-77
2021/09/25 04:04:56;;;;;;;5.83;2.47;;;10.90;1.00;;;;;;5032977;28;20426;-77
2021/09/25 04:10:56;;;;;;;3.30;2.73;;;10.90;1.00;;;;;;5013925;28;20451;-77
2021/09/25 04:13:26;;;;;;;3.47;2.37;;;10.90;1.00;;;;;;5014462;28;20396;-75
2021/09/25 04:15:56;;;;;;;3.57;2.93;;;10.80;1.00;;;;;;5018710;28;20407;-74
2021/09/25 04:18:32;;;;;;;3.70;2.57;;;10.80;1.00;;;;;;5033578;28;20407;-74
2021/09/25 04:20:58;;;;;;;5.07;2.70;;;11.00;1.00;;;;;;5014089;28;20797;-75
2021/09/25 04:23:26;;;;;;;8.03;2.90;;;10.90;1.00;;;;;;5013992;28;20526;-75
2021/09/25 04:25:52;;;;;;;4.90;3.20;;;10.90;1.00;;;;;;5032630;28;20175;-79
2021/09/25 04:28:17;;;;;;;3.53;2.33;;;10.90;1.00;;;;;;5033366;28;20415;-78
2021/09/25 04:30:43;;;;;;;4.40;2.70;;;10.80;1.00;;;;;;5033145;28;20188;-75
2021/09/25 04:33:10;;;;;;;4.20;2.77;;;10.80;1.00;;;;;;5013821;28;20687;-75
2021/09/25 04:35:39;;;;;;;4.10;2.67;;;10.80;1.00;;;;;;5013210;28;20707;-74
2021/09/25 04:38:08;;;;;;;4.00;2.60;;;10.80;1.00;;;;;;5012353;28;20423;-74
2021/09/25 04:40:38;;;;;;;3.17;2.73;;;10.80;1.00;;;;;;5031449;28;20972;-74
2021/09/25 04:43:20;;;;;;;3.00;2.40;;;10.80;1.00;;;;;;5033566;28;20458;-74
2021/09/25 04:45:46;;;;;;;4.20;2.70;;;10.70;1.00;;;;;;5024287;28;20943;-74
2021/09/25 04:48:38;;;;;;;7.80;2.80;;;10.70;1.00;;;;;;5015020;28;20485;-74
2021/09/25 04:51:04;;;;;;;5.97;2.83;;;10.70;1.00;;;;;;5017920;28;20688;-75
2021/09/25 04:53:32;;;;;;;4.30;3.40;;;10.60;1.00;;;;;;5035958;28;20514;-74
2021/09/25 04:55:58;;;;;;;5.43;2.77;;;10.60;1.00;;;;;;5032404;28;20609;-75
2021/09/25 04:58:39;;;;;;;3.80;2.90;;;10.60;1.00;;;;;;5018142;28;20403;-74
2021/09/25 05:01:09;;;;;;;7.23;3.23;;;10.50;1.00;;;;;;5019736;28;20420;-74
2021/09/25 05:03:38;;;;;;;6.23;3.40;;;10.50;1.00;;;;;;5037485;28;20407;-74
2021/09/25 05:06:04;;;;;;;3.93;3.20;;;10.50;1.00;;;;;;5036675;28;20977;-75
2021/09/25 05:08:30;;;;;;;7.23;3.40;;;10.50;1.00;;;;;;5036855;28;20506;-74
2021/09/25 05:10:56;;;;;;;3.87;3.10;;;10.50;1.00;;;;;;5037125;28;20156;-75
2021/09/25 05:13:22;;;;;;;6.80;2.80;;;10.50;1.00;;;;;;5026603;28;20522;-77
2021/09/25 05:15:48;;;;;;;2.90;2.70;;;10.50;1.00;;;;;;5036369;28;20420;-77
2021/09/25 05:21:56;;;;;;;5.83;3.40;;;10.40;1.00;;;;;;5036947;28;20326;-77
2021/09/25 05:24:38;;;;;;;3.93;2.97;;;10.40;1.00;;;;;;5026948;28;20418;-80
2021/09/25 05:27:08;;;;;;;3.67;2.80;;;10.40;1.00;;;;;;5037042;28;20509;-81
2021/09/25 05:30:09;;;;;;;6.03;3.47;;;10.40;1.00;;;;;;5037130;28;20383;-81
2021/09/25 05:32:38;;;;;;;6.80;3.63;;;10.40;1.00;;;;;;5036814;28;20422;-74
2021/09/25 05:35:20;;;;;;;5.60;3.37;;;10.50;1.00;;;;;;5036035;28;20414;-74
2021/09/25 05:38:02;;;;;;;3.30;3.00;;;10.50;1.00;;;;;;5017425;28;20880;-74
2021/09/25 05:40:32;;;;;;;5.37;3.80;;;10.50;1.00;;;;;;5016701;28;20448;-74
2021/09/25 05:42:58;;;;;;;8.10;3.40;;;10.50;1.00;;;;;;5016888;28;20455;-74
2021/09/25 05:45:32;;;;;;;4.23;3.10;;;10.50;1.00;;;;;;5020662;28;20466;-77
2021/09/25 05:48:38;;;;;;;4.13;3.03;;;10.50;1.00;;;;;;5017099;28;20216;-77
2021/09/25 05:51:04;;;;;;;4.87;3.27;;;10.50;1.00;;;;;;5016795;28;20397;-77
2021/09/25 05:53:32;;;;;;;7.67;4.10;;;10.60;1.00;;;;;;5024147;28;20439;-77
2021/09/25 05:56:03;;;;;;;8.83;3.33;;;10.60;1.00;;;;;;5035429;28;20415;-77
2021/09/25 05:58:38;;;;;;;4.87;3.57;;;10.60;1.00;;;;;;5035942;28;20435;-77
2021/09/25 06:01:08;;;;;;;6.77;3.20;;;10.70;1.00;;;;;;5030657;28;20799;-77
2021/09/25 06:03:34;;;;;;;7.10;3.60;;;10.70;1.00;;;;;;5029480;28;20414;-77
2021/09/25 06:06:08;;;;;;;5.17;3.70;;;10.80;1.00;;;;;;5030535;28;20503;-77
2021/09/25 06:08:38;;;;;;;4.87;3.47;;;10.80;1.00;;;;;;5030994;28;20411;-77
2021/09/25 06:11:26;;;;;;;5.50;3.67;;;10.90;1.00;;;;;;5036768;28;20392;-77
2021/09/25 06:14:08;;;;;;;6.70;3.77;;;10.90;1.00;;;;;;5029849;28;20488;-77
2021/09/25 06:17:08;;;;;;;5.90;3.10;;;11.00;1.00;;;;;;5027496;28;20421;-80
2021/09/25 06:19:34;;;;;;;6.50;3.70;;;11.00;1.00;;;;;;5025771;28;20431;-78
2021/09/25 06:22:08;;;;;;;4.20;3.50;;;11.10;1.00;;;;;;5021986;28;20459;-78
2021/09/25 06:25:20;;;;;;;4.83;3.83;;;11.10;1.00;;;;;;5035725;28;20164;-78
2021/09/25 06:27:51;;;;;;;9.93;4.07;;;11.20;1.00;;;;;;5034659;28;20435;-78
2021/09/25 06:30:16;;;;;;;5.90;3.50;;;11.30;1.00;;;;;;5036145;28;20410;-74
2021/09/25 06:32:42;;;;;;;5.67;4.17;;;11.40;1.00;;;;;;5034377;28;20407;-74
2021/09/25 06:35:10;;;;;;;6.27;3.97;;;11.50;1.00;;;;;;5018024;28;20692;-74
2021/09/25 06:37:39;;;;;;;5.97;3.93;;;11.60;1.00;;;;;;5024874;28;20169;-74
2021/09/25 06:40:10;;;;;;;4.50;3.80;;;11.60;1.00;;;;;;5035244;28;20415;-74
2021/09/25 06:42:37;;;;;;;6.50;3.83;;;11.70;1.00;;;;;;5034852;28;20529;-74
2021/09/25 06:45:04;;;;;;;5.13;3.40;;;11.80;1.00;;;;;;5031088;28;20522;-74
2021/09/25 06:47:30;;;;;;;3.63;3.27;;;11.80;1.00;;;;;;5035030;28;20408;-74
2021/09/25 06:49:56;;;;;;;5.77;3.80;;;11.90;1.00;;;;;;5035339;28;20430;-73
2021/09/25 06:52:27;;;;;;;7.07;4.30;;;12.00;1.00;;;;;;5035132;28;20476;-73
2021/09/25 06:54:56;;;;;;;5.10;3.70;;;12.10;1.00;;;;;;5015306;28;20400;-73
2021/09/25 06:57:22;;;;;;;6.93;3.03;;;12.20;1.00;;;;;;5021536;28;20454;-73
2021/09/25 07:00:26;;;;;;;5.53;3.97;;;12.20;1.00;;;;;;5035131;28;20454;-84
2021/09/25 07:02:56;;;;;;;6.20;3.60;;;12.40;1.00;;;;;;5028117;28;20195;-77
2021/09/25 07:08:43;;;;;;;7.87;5.10;;;12.50;1.00;;;;;;5029763;28;20461;-77
2021/09/25 07:11:38;;;;;;;4.70;4.13;;;12.70;1.00;;;;;;5035182;28;20407;-78
2021/09/25 07:14:06;;;;;;;6.23;4.20;;;12.90;1.00;;;;;;5034876;28;20188;-77
2021/09/25 07:16:50;;;;;;;7.43;5.37;;;13.00;1.00;;;;;;5033444;28;20824;-80
2021/09/25 07:19:44;;;;;;;17.37;9.03;;;13.00;1.00;;;;;;5034644;28;20449;-78
2021/09/25 07:22:10;;;;;;;11.97;5.83;;;13.30;1.00;;;;;;5034744;28;20473;-77
2021/09/25 07:27:57;;;;;;;12.20;7.07;;;13.50;1.00;;;;;;5033958;28;21047;-78
2021/09/25 07:33:45;;;;;;;12.10;6.57;;;13.80;1.00;;;;;;5028067;28;20207;-78
2021/09/25 07:36:44;;;;;;;12.53;7.50;;;14.00;1.00;;;;;;5014703;28;20400;-77
2021/09/25 07:39:32;;;;;;;9.97;5.90;;;14.20;1.00;;;;;;5023630;28;20172;-77
2021/09/25 07:42:03;;;;;;;9.77;6.23;;;14.30;1.00;;;;;;5034344;28;20911;-78
2021/09/25 07:47:51;;;;;;;11.97;6.97;;;14.60;1.00;;;;;;5020765;28;20884;-80
2021/09/25 07:50:56;;;;;;;10.63;6.90;;;14.70;1.00;;;;;;5033389;28;20455;-81
2021/09/25 07:56:43;;;;;;;13.73;7.80;;;14.90;1.00;;;;;;5014213;28;20514;-80
2021/09/25 07:59:09;;;;;;;14.47;8.40;;;15.20;1.00;;;;;;5032122;28;20456;-80
2021/09/25 08:01:44;;;;;;;14.30;7.80;;;15.20;1.00;;;;;;5034173;28;20196;-80
2021/09/25 08:04:10;;;;;;;13.00;8.70;;;15.40;1.00;;;;;;5027293;28;20649;-80
2021/09/25 08:06:38;;;;;;;14.37;8.57;;;15.50;1.00;;;;;;5016921;28;20519;-81
2021/09/25 08:09:09;;;;;;;19.07;10.13;;;;;;;;;;5021870;28;20681;-80
2021/09/25 08:11:51;;;;;;;18.00;9.33;;;15.80;1.00;;;;;;5033147;28;20804;-81
2021/09/25 08:14:32;;;;;;;12.90;8.30;;;15.90;1.00;;;;;;5027668;28;20430;-77
2021/09/25 08:17:03;;;;;;;20.53;9.50;;;;;;;;;;5014277;28;20425;-73
2021/09/25 08:19:32;;;;;;;14.90;8.40;;;16.10;1.00;;;;;;5018888;28;20394;-73
2021/09/25 08:25:23;;;;;;;15.53;8.70;;;16.30;1.00;;;;;;5013567;28;20386;-74
2021/09/25 08:27:49;;;;;;;9.23;6.40;;;16.40;1.00;;;;;;5014142;28;20405;-77
2021/09/25 08:30:35;;;;;;;14.33;8.00;;;16.60;1.00;;;;;;5026933;28;20402;-77
2021/09/25 08:33:03;;;;;;;15.00;7.57;;;16.80;1.00;;;;;;5033519;28;20394;-76
2021/09/25 08:35:33;;;;;;;13.63;7.30;;;;;;;;;;5033019;28;20505;-77
2021/09/25 08:37:59;;;;;;;14.40;7.80;;;;;;;;;;5033843;28;20392;-76
2021/09/25 08:40:27;;;;;;;18.67;9.10;;;;;;;;;;5032930;28;20399;-76
2021/09/25 08:42:53;;;;;;;23.43;9.03;;;;;;;;;;5026402;28;20452;-76
2021/09/25 08:45:21;;;;;;;21.43;9.27;;;17.40;1.00;;;;;;5026335;28;20419;-76
2021/09/25 08:47:51;;;;;;;20.23;10.17;;;;;;;;;;5033795;28;20487;-76
2021/09/25 08:50:50;;;;;;;25.27;11.40;;;17.50;1.00;;;;;;5028261;28;20439;-76
2021/09/25 08:53:16;;;;;;;19.93;10.67;;;;;;;;;;5012506;28;20775;-76
2021/09/25 08:55:42;;;;;;;19.57;10.77;;;;;;;;;;5013692;28;20441;-76
2021/09/25 08:58:10;;;;;;;20.97;11.30;;;17.80;1.00;;;;;;5022976;28;20514;-76
2021/09/25 09:01:14;;;;;;;28.40;11.83;;;17.80;1.00;;;;;;5033043;28;20626;-79
2021/09/25 09:03:44;;;;;;;20.00;11.73;;;;;;;;;;5033195;28;20472;-79
2021/09/25 09:06:30;;;;;;;22.43;12.50;;;18.00;1.00;;;;;;5033249;28;20860;-79
2021/09/25 09:12:28;;;;;;;22.50;11.27;;;18.10;1.00;;;;;;5032758;28;20803;-78
2021/09/25 09:15:03;;;;;;;27.80;12.67;;;;;;;;;;5032919;28;20412;-79
2021/09/25 09:17:32;;;;;;;20.27;11.40;;;18.40;1.00;;;;;;5033453;28;20412;-76
2021/09/25 09:19:58;;;;;;;27.37;12.13;;;;;;;;;;5032973;28;20953;-76
2021/09/25 09:22:25;;;;;;;24.97;11.63;;;18.60;1.00;;;;;;5032925;28;20927;-76
2021/09/25 09:25:07;;;;;;;34.17;11.70;;;18.70;1.00;;;;;;5033133;28;20412;-75
2021/09/25 09:27:45;;;;;;;39.13;12.33;;;;;;;;;;5017940;28;20906;-76
2021/09/25 09:30:15;;;;;;;97.90;13.80;;;;;;;;;;5016750;28;20439;-76
2021/09/25 09:33:26;;;;;;;54.90;11.43;;;19.00;1.00;;;;;;5029559;28;20393;-78
2021/09/25 09:36:44;;;;;;;16.13;8.70;;;19.00;1.00;;;;;;5014948;28;20438;-83
2021/09/25 09:39:21;;;;;;;19.07;8.70;;;19.20;1.00;;;;;;5036151;28;20408;-83
2021/09/25 09:45:39;;;;;;;19.73;8.30;;;19.50;1.00;;;;;;5036693;28;20369;-83
2021/09/25 09:52:03;;;;;;;12.07;5.70;;;19.80;1.00;;;;;;5016373;28;20633;-80
2021/09/25 09:54:33;;;;;;;9.03;6.40;;;;;;;;;;5016903;28;20905;-86
2021/09/25 09:57:26;;;;;;;10.53;5.87;;;19.90;1.00;;;;;;5022748;28;20411;-86
2021/09/25 10:00:04;;;;;;;10.87;6.13;;;20.00;1.00;;;;;;5035296;28;20430;-87
2021/09/25 10:02:39;;;;;;;12.53;7.00;;;;;;;;;;5035750;28;20548;-86
2021/09/25 10:05:05;;;;;;;8.90;4.63;;;;;;;;;;5035178;28;20414;-76
2021/09/25 10:08:08;;;;;;;7.27;4.30;;;20.10;1.00;;;;;;5020220;28;20431;-76
2021/09/25 10:10:45;;;;;;;10.73;5.57;;;;;;;;;;5016366;28;20404;-77
2021/09/25 10:13:32;;;;;;;11.90;5.40;;;20.20;1.00;;;;;;5016038;28;20423;-76
2021/09/25 10:16:10;;;;;;;19.67;5.67;;;20.30;1.00;;;;;;5016563;28;20405;-75
2021/09/25 10:18:36;;;;;;;15.87;5.17;;;;;;;;;;5016394;28;20817;-76
2021/09/25 10:21:04;;;;;;;14.20;4.67;;;20.50;1.00;;;;;;5016153;28;20397;-76
2021/09/25 10:23:33;;;;;;;9.00;4.73;;;20.50;1.00;;;;;;5015963;28;20506;-77
2021/09/25 10:26:43;;;;;;;12.03;5.00;;;20.60;1.00;;;;;;5018627;28;20508;-76
2021/09/25 10:29:09;;;;;;;8.13;4.80;;;;;;;;;;5027873;28;20462;-75
2021/09/25 10:31:45;;;;;;;27.67;7.20;;;;;;;;;;5028994;28;20466;-74
2021/09/25 10:34:14;;;;;;;12.67;5.83;;;;;;;;;;5033430;28;20417;-73
2021/09/25 10:36:47;;;;;;;22.27;5.93;;;20.80;1.00;;;;;;5034684;28;20440;-73
2021/09/25 10:39:17;;;;;;;13.43;5.13;;;20.90;1.00;;;;;;5030502;28;20865;-73
2021/09/25 10:41:45;;;;;;;22.17;5.50;;;;;;;;;;5025304;28;20602;-73
2021/09/25 10:44:33;;;;;;;19.93;4.83;;;21.00;1.00;;;;;;5026111;28;20404;-73
2021/09/25 10:47:18;;;;;;;9.87;4.70;;;21.10;1.00;;;;;;5034496;28;20409;-74
2021/09/25 10:49:57;;;;;;;9.33;4.70;;;;;;;;;;5031694;28;20428;-74
2021/09/25 10:56:00;;;;;;;10.03;3.63;;;;;;;;;;5034749;28;20417;-84
2021/09/25 11:01:54;;;;;;;9.23;3.50;;;;;;;;;;5033671;28;20507;-83
2021/09/25 11:04:22;;;;;;;8.00;4.23;;;21.30;1.00;;;;;;5015319;28;20400;-75
2021/09/25 11:06:55;;;;;;;10.70;4.33;;;21.50;1.00;;;;;;5015291;28;20405;-75
2021/09/25 11:09:38;;;;;;;8.97;4.10;;;21.50;1.00;;;;;;5015051;28;20395;-76
2021/09/25 11:12:11;;;;;;;19.33;5.60;;;21.60;1.00;;;;;;5025695;28;20455;-76
2021/09/25 11:14:49;;;;;;;19.83;4.83;;;21.70;1.00;;;;;;5030375;28;20880;-75
2021/09/25 11:17:15;;;;;;;14.30;4.40;;;;;;;;;;5015357;28;20425;-75
2021/09/25 11:19:45;;;;;;;19.93;5.27;;;;;;;;;;5024008;28;20420;-75
2021/09/25 11:22:12;;;;;;;9.67;4.20;;;21.90;1.00;;;;;;5025679;28;20987;-75
2021/09/25 11:24:48;;;;;;;9.27;4.10;;;22.00;1.00;;;;;;5034627;28;20402;-75
2021/09/25 11:27:40;;;;;;;10.97;3.90;;;22.00;1.00;;;;;;5034600;28;20405;-76
2021/09/25 11:30:06;;;;;;;9.67;4.13;;;;;;;;;;5029684;28;20446;-76
2021/09/25 11:32:41;;;;;;;7.93;3.50;;;22.20;1.00;;;;;;5028821;28;20416;-79
2021/09/25 11:35:12;;;;;;;14.70;4.50;;;22.20;1.00;;;;;;5034262;28;20387;-75
2021/09/25 11:38:14;;;;;;;10.77;4.20;;;22.40;1.00;;;;;;5034342;28;20436;-76
2021/09/25 11:40:45;;;;;;;8.33;3.63;;;22.40;1.00;;;;;;5025973;28;20769;-75
2021/09/25 11:43:17;;;;;;;12.70;4.43;;;22.60;1.00;;;;;;5033186;28;20508;-75
2021/09/25 11:45:54;;;;;;;8.43;3.47;;;22.70;1.00;;;;;;5034416;28;20400;-75
2021/09/25 11:48:27;;;;;;;11.27;3.60;;;22.70;1.00;;;;;;5033975;28;20433;-76
2021/09/25 11:51:09;;;;;;;14.00;4.40;;;;;;;;;;5033006;28;20969;-75
2021/09/25 11:53:36;;;;;;;8.87;3.50;;;;;;;;;;5014795;28;20416;-75
2021/09/25 11:56:03;;;;;;;10.40;3.87;;;;;;;;;;5014542;28;20492;-75
2021/09/25 11:58:30;;;;;;;6.03;3.43;;;;;;;;;;5013550;28;20413;-75
2021/09/25 12:00:58;;;;;;;8.03;3.27;;;;;;;;;;5018185;28;20423;-75
2021/09/25 12:03:29;;;;;;;5.73;3.30;;;;;;;;;;5034176;28;20494;-75
2021/09/25 12:05:57;;;;;;;15.97;4.17;;;23.10;1.00;;;;;;5033194;28;20423;-75
2021/09/25 12:08:24;;;;;;;16.30;4.20;;;;;;;;;;5019000;28;20415;-75
2021/09/25 12:10:53;;;;;;;16.37;3.97;;;23.20;1.00;;;;;;5033150;28;20396;-75
2021/09/25 12:13:25;;;;;;;23.97;3.30;;;23.20;1.00;;;;;;5033767;28;20430;-75
2021/09/25 12:16:05;;;;;;;6.17;2.57;;;23.30;1.00;;;;;;5033284;28;20428;-75
2021/09/25 12:18:40;;;;;;;5.73;2.77;;;23.30;1.00;;;;;;5034328;28;20877;-76
2021/09/25 12:21:13;;;;;;;4.13;2.50;;;;;;;;;;5034005;28;20465;-76
2021/09/25 12:23:51;;;;;;;6.50;2.73;;;23.40;1.00;;;;;;5033261;28;20515;-76
2021/09/25 12:26:56;;;;;;;11.70;3.00;;;23.50;1.00;;;;;;5033468;28;20430;-77
2021/09/25 12:29:24;;;;;;;4.83;2.60;;;;;;;;;;5032665;28;20442;-77
2021/09/25 12:31:59;;;;;;;8.07;3.60;;;;;;;;;;5032820;28;20391;-77
2021/09/25 12:34:28;;;;;;;47.93;5.83;;;;;;;;;;5033480;28;20890;-76
2021/09/25 12:37:03;;;;;;;5.83;2.70;;;;;;;;;;5023303;28;20441;-76
2021/09/25 12:39:30;;;;;;;5.90;2.90;;;23.70;1.00;;;;;;5024049;28;20912;-77
2021/09/25 12:42:04;;;;;;;8.47;3.10;;;23.70;1.00;;;;;;5033423;28;20458;-76
2021/09/25 12:44:35;;;;;;;4.63;3.00;;;23.70;1.00;;;;;;5033420;28;20405;-77
2021/09/25 12:47:09;;;;;;;7.20;2.80;;;;;;;;;;5033287;28;20509;-77
2021/09/25 12:49:35;;;;;;;23.80;4.23;;;;;;;;;;5033227;28;20431;-77
2021/09/25 12:52:08;;;;;;;21.33;3.97;;;;;;;;;;5033201;28;20449;-77
2021/09/25 12:54:39;;;;;;;24.83;3.80;;;23.90;1.00;;;;;;5033415;28;20413;-76
2021/09/25 12:57:17;;;;;;;12.40;3.47;;;24.00;1.00;;;;;;5030958;28;20376;-77
2021/09/25 12:59:44;;;;;;;4.83;2.87;;;;;;;;;;5013690;28;20409;-76
2021/09/25 13:02:16;;;;;;;5.00;2.70;;;;;;;;;;5013749;28;20505;-76
2021/09/25 13:04:44;;;;;;;6.23;2.67;;;;;;;;;;5013629;28;20425;-75
2021/09/25 13:07:11;;;;;;;14.63;3.70;;;;;;;;;;5025045;28;20421;-75
2021/09/25 13:09:48;;;;;;;5.50;3.00;;;24.20;1.00;;;;;;5033396;28;20419;-75
2021/09/25 13:12:18;;;;;;;7.70;2.63;;;24.40;1.00;;;;;;5034718;28;20507;-79
2021/09/25 13:14:56;;;;;;;6.97;2.70;;;24.40;1.00;;;;;;5037066;28;20768;-75
2021/09/25 13:17:22;;;;;;;14.20;3.20;;;;;;;;;;5036844;28;20480;-75
2021/09/25 13:19:57;;;;;;;3.50;2.07;;;;;;;;;;5021278;28;20430;-77
2021/09/25 13:22:23;;;;;;;13.30;2.67;;;;;;;;;;5016095;28;20457;-77
2021/09/25 13:25:14;;;;;;;6.50;2.50;;;;;;;;;;5017266;28;20735;-77
2021/09/25 13:27:46;;;;;;;9.83;2.47;;;24.60;1.00;;;;;;5021088;28;20501;-77
2021/09/25 13:30:16;;;;;;;6.30;2.30;;;24.60;1.00;;;;;;5016973;28;20411;-77
2021/09/25 13:32:43;;;;;;;9.97;3.03;;;;;;;;;;5016356;28;20451;-75
2021/09/25 13:35:15;;;;;;;4.80;2.40;;;;;;;;;;5029100;28;20500;-75
2021/09/25 13:37:41;;;;;;;5.93;2.37;;;;;;;;;;5035997;28;20446;-75
2021/09/25 13:40:11;;;;;;;12.10;3.00;;;24.60;1.00;;;;;;5025560;28;20425;-77
2021/09/25 13:42:37;;;;;;;7.63;2.53;;;24.50;1.00;;;;;;5016956;28;20461;-77
2021/09/25 13:45:04;;;;;;;11.73;2.90;;;;;;;;;;5016985;28;20395;-73
2021/09/25 13:47:31;;;;;;;9.40;2.70;;;;;;;;;;5029085;28;20453;-73
2021/09/25 13:49:58;;;;;;;3.57;2.20;;;;;;;;;;5035128;28;20414;-72
2021/09/25 13:52:24;;;;;;;7.17;2.13;;;;;;;;;;5036256;28;20426;-73
2021/09/25 13:54:50;;;;;;;6.30;2.50;;;;;;;;;;5036156;28;20544;-73
2021/09/25 13:57:16;;;;;;;19.40;2.50;;;;;;;;;;5035766;28;20508;-73
2021/09/25 13:59:43;;;;;;;11.83;3.17;;;;;;;;;;5035244;28;20800;-74
2021/09/25 14:02:10;;;;;;;7.80;1.80;;;24.40;99.90;;;;;;5035501;28;20488;-74
2021/09/25 14:04:37;;;;;;;6.83;2.27;;;;;;;;;;5035118;28;20418;-74
2021/09/25 14:07:03;;;;;;;9.43;2.80;;;24.50;1.00;;;;;;5023865;28;20418;-75
2021/09/25 14:09:32;;;;;;;18.70;3.67;;;;;;;;;;5016289;28;20403;-74
2021/09/25 14:12:03;;;;;;;6.23;2.30;;;24.70;99.90;;;;;;5035770;28;20414;-75
2021/09/25 14:14:29;;;;;;;7.17;2.60;;;;;;;;;;5035878;28;20480;-74
2021/09/25 14:16:55;;;;;;;11.47;2.80;;;;;;;;;;5026602;28;20426;-74
2021/09/25 14:19:22;;;;;;;4.20;2.07;;;;;;;;;;5027638;28;20417;-74
2021/09/25 14:21:48;;;;;;;4.73;2.00;;;;;;;;;;5034939;28;20962;-76
2021/09/25 14:24:33;;;;;;;2.77;2.10;;;;;;;;;;5036078;28;20397;-78
2021/09/25 14:30:21;;;;;;;10.37;2.80;;;;;;;;;;5034714;28;20511;-84
2021/09/25 14:33:32;;;;;;;3.10;1.93;;;24.90;99.90;;;;;;5034312;28;20413;-84
2021/09/25 14:46:04;;;;;;;4.90;1.60;;;25.30;99.90;;;;;;5035185;28;20479;-78
2021/09/25 14:51:34;;;;;;;9.37;2.83;;;24.70;1.00;;;;;;5035081;28;20535;-79
2021/09/25 14:54:09;;;;;;;2.23;2.03;;;;;;;;;;5035094;28;20400;-79
2021/09/25 14:56:35;;;;;;;15.10;3.07;;;;;;;;;;5035058;28;20464;-79
2021/09/25 14:59:26;;;;;;;1.60;1.50;;;;;;;;;;5031459;28;20909;-79
2021/09/25 15:01:57;;;;;;;4.30;2.17;;;;;;;;;;5015206;28;20540;-79
2021/09/25 15:07:47;;;;;;;1.40;1.30;;;25.10;99.90;;;;;;5033335;28;20463;-80
2021/09/25 15:10:15;;;;;;;7.40;1.97;;;;;;;;;;5033626;28;20817;-81
2021/09/25 15:12:51;;;;;;;6.70;2.33;;;;;;;;;;5019093;28;20423;-78
2021/09/25 15:18:38;;;;;;;15.10;2.40;;;;;;;;;;5019952;28;20453;-81
2021/09/25 15:21:26;;;;;;;30.17;3.93;;;;;;;;;;5034746;28;20389;-82
2021/09/25 15:24:03;;;;;;;7.40;2.63;;;;;;;;;;5034488;28;20502;-79